createdAt,value
2023-11-29T00:00:25.365Z,17.27
2023-11-29T00:02:52.283Z,15.77
2023-11-29T00:05:24.499Z,4.30
2023-11-29T00:07:56.536Z,3.97
2023-11-29T00:10:23.720Z,3.70
2023-11-29T00:12:50.957Z,3.77
2023-11-29T00:15:17.739Z,4.17
2023-11-29T00:17:44.747Z,3.77
2023-11-29T00:20:13.036Z,3.80
2023-11-29T00:22:40.100Z,4.20
2023-11-29T00:25:08.538Z,4.27
2023-11-29T00:27:35.626Z,4.43
2023-11-29T00:30:04.025Z,4.10
2023-11-29T00:32:30.999Z,4.00
2023-11-29T00:34:57.927Z,4.20
2023-11-29T00:37:24.810Z,4.23
2023-11-29T00:39:51.658Z,4.00
2023-11-29T00:42:18.495Z,4.20
2023-11-29T00:44:45.381Z,4.43
2023-11-29T00:47:12.289Z,4.23
2023-11-29T00:49:39.512Z,4.37
2023-11-29T00:52:06.659Z,4.20
2023-11-29T00:54:33.500Z,6.00
2023-11-29T00:57:00.366Z,3.97
2023-11-29T00:59:27.221Z,3.20
2023-11-29T01:01:54.356Z,3.10
2023-11-29T01:04:21.455Z,3.60
2023-11-29T01:06:48.463Z,3.50
2023-11-29T01:09:15.277Z,3.63
2023-11-29T01:11:42.187Z,3.70
2023-11-29T01:14:09.862Z,3.47
2023-11-29T01:16:36.810Z,3.43
2023-11-29T01:19:03.934Z,3.30
2023-11-29T01:21:35.528Z,4.10
2023-11-29T01:24:05.370Z,3.50
2023-11-29T01:26:32.916Z,3.70
2023-11-29T01:29:00.065Z,3.50
2023-11-29T01:31:27.823Z,3.83
2023-11-29T01:33:55.349Z,3.83
2023-11-29T01:36:22.844Z,5.63
2023-11-29T01:38:49.945Z,4.07
2023-11-29T01:41:18.031Z,4.60
2023-11-29T01:43:44.904Z,4.03
2023-11-29T01:46:12.002Z,4.40
2023-11-29T01:48:39.978Z,4.33
2023-11-29T01:51:09.203Z,3.77
2023-11-29T01:53:39.383Z,3.80
2023-11-29T01:56:07.370Z,4.03
2023-11-29T01:58:34.218Z,4.50
2023-11-29T02:01:01.251Z,4.87
2023-11-29T02:03:29.651Z,4.37
2023-11-29T02:05:56.911Z,4.63
2023-11-29T02:08:24.993Z,5.50
2023-11-29T02:10:52.090Z,5.73
2023-11-29T02:13:19.624Z,5.03
2023-11-29T02:15:47.014Z,5.70
2023-11-29T02:18:14.979Z,6.13
2023-11-29T02:20:42.105Z,5.33
2023-11-29T02:23:27.913Z,5.43
2023-11-29T02:25:55.990Z,5.47
2023-11-29T02:28:23.691Z,5.97
2023-11-29T02:30:50.597Z,5.73
2023-11-29T02:33:17.572Z,6.37
2023-11-29T02:35:44.634Z,6.67
2023-11-29T02:38:11.632Z,6.43
2023-11-29T02:40:38.536Z,6.10
2023-11-29T02:43:05.341Z,6.30
2023-11-29T02:45:33.995Z,7.00
2023-11-29T02:48:01.195Z,6.83
2023-11-29T02:50:28.570Z,7.17
2023-11-29T02:52:55.561Z,7.37
2023-11-29T02:55:24.234Z,6.50
2023-11-29T02:57:51.161Z,7.87
2023-11-29T03:00:18.348Z,7.67
2023-11-29T03:02:45.961Z,7.30
2023-11-29T03:05:13.378Z,7.17
2023-11-29T03:07:40.249Z,7.13
2023-11-29T03:10:07.659Z,7.47
2023-11-29T03:12:34.924Z,7.10
2023-11-29T03:15:01.826Z,7.50
2023-11-29T03:17:28.695Z,8.37
2023-11-29T03:19:55.595Z,8.53
2023-11-29T03:22:22.553Z,8.53
2023-11-29T03:24:49.555Z,7.83
2023-11-29T03:27:20.388Z,7.97
2023-11-29T03:29:47.441Z,8.03
2023-11-29T03:32:14.941Z,8.30
2023-11-29T03:34:41.923Z,7.60
2023-11-29T03:37:08.864Z,8.83
2023-11-29T03:39:35.902Z,9.07
2023-11-29T03:42:03.409Z,8.87
2023-11-29T03:44:30.456Z,8.63
2023-11-29T03:46:57.339Z,8.40
2023-11-29T03:49:24.204Z,8.60
2023-11-29T03:51:51.071Z,8.30
2023-11-29T03:54:17.968Z,9.23
2023-11-29T03:56:44.936Z,8.70
2023-11-29T03:59:11.922Z,9.33
2023-11-29T04:01:38.830Z,8.67
2023-11-29T04:04:05.934Z,7.80
2023-11-29T04:06:32.836Z,7.77
2023-11-29T04:08:59.803Z,7.33
2023-11-29T04:11:26.731Z,8.30
2023-11-29T04:13:54.027Z,7.77
2023-11-29T04:16:28.961Z,7.70
2023-11-29T04:18:56.642Z,7.60
2023-11-29T04:21:29.368Z,8.30
2023-11-29T04:23:57.222Z,7.80
2023-11-29T04:26:34.672Z,7.27
2023-11-29T04:29:03.919Z,7.73
2023-11-29T04:31:32.070Z,7.50
2023-11-29T04:34:06.900Z,7.37
2023-11-29T04:36:36.767Z,6.80
2023-11-29T04:39:06.631Z,7.70
2023-11-29T04:41:33.659Z,7.43
2023-11-29T04:44:00.818Z,7.10
2023-11-29T04:46:27.742Z,7.60
2023-11-29T04:48:54.685Z,6.17
2023-11-29T04:51:22.415Z,7.00
2023-11-29T04:53:49.318Z,7.00
2023-11-29T04:56:16.187Z,7.63
2023-11-29T04:58:43.068Z,7.17
2023-11-29T05:01:11.767Z,7.23
2023-11-29T05:03:39.508Z,8.03
2023-11-29T05:06:13.862Z,7.23
2023-11-29T05:08:40.738Z,6.43
2023-11-29T05:11:08.551Z,6.13
2023-11-29T05:13:35.993Z,5.83
2023-11-29T05:16:03.071Z,6.60
2023-11-29T05:18:30.375Z,6.17
2023-11-29T05:20:58.528Z,4.97
2023-11-29T05:23:28.251Z,5.10
2023-11-29T05:25:55.252Z,5.30
2023-11-29T05:28:26.156Z,5.30
2023-11-29T05:30:54.424Z,5.27
2023-11-29T05:33:23.637Z,4.70
2023-11-29T05:35:51.149Z,5.60
2023-11-29T05:38:18.523Z,5.30
2023-11-29T05:40:45.961Z,5.17
2023-11-29T05:43:12.812Z,5.43
2023-11-29T05:45:39.778Z,5.20
2023-11-29T05:48:07.057Z,4.60
2023-11-29T05:50:34.611Z,5.10
2023-11-29T05:53:01.576Z,5.40
2023-11-29T05:55:29.193Z,5.30
2023-11-29T05:57:56.035Z,6.00
2023-11-29T06:00:28.480Z,6.07
2023-11-29T06:03:03.067Z,6.40
2023-11-29T06:05:31.541Z,5.80
2023-11-29T06:07:58.941Z,5.23
2023-11-29T06:10:26.717Z,5.60
2023-11-29T06:12:54.489Z,5.20
2023-11-29T06:15:21.721Z,5.60
2023-11-29T06:17:49.290Z,5.77
2023-11-29T06:20:20.253Z,5.50
2023-11-29T06:22:47.870Z,4.87
2023-11-29T06:25:16.061Z,4.73
2023-11-29T06:27:46.234Z,4.53
2023-11-29T06:30:13.656Z,5.00
2023-11-29T06:32:43.405Z,5.23
2023-11-29T06:35:14.047Z,5.83
2023-11-29T06:37:41.663Z,5.63
2023-11-29T06:40:12.457Z,5.40
2023-11-29T06:42:43.756Z,5.70
2023-11-29T06:45:12.180Z,5.40
2023-11-29T06:47:39.982Z,5.60
2023-11-29T06:50:08.197Z,6.13
2023-11-29T06:52:35.642Z,5.50
2023-11-29T06:55:02.667Z,5.23
2023-11-29T06:57:29.749Z,4.87
2023-11-29T06:59:56.684Z,4.77
2023-11-29T07:02:24.036Z,4.50
2023-11-29T07:04:51.452Z,4.57
2023-11-29T07:07:18.305Z,5.10
2023-11-29T07:09:47.389Z,5.20
2023-11-29T07:12:14.677Z,5.07
2023-11-29T07:14:43.588Z,4.93
2023-11-29T07:17:14.298Z,4.53
2023-11-29T07:19:42.213Z,4.60
2023-11-29T07:22:09.357Z,4.80
2023-11-29T07:24:36.310Z,13.43
2023-11-29T07:27:03.247Z,5.13
2023-11-29T07:29:32.367Z,7.67
2023-11-29T07:31:59.864Z,5.63
2023-11-29T07:34:26.870Z,5.90
2023-11-29T07:36:54.142Z,5.30
2023-11-29T07:39:21.166Z,5.57
2023-11-29T07:41:49.102Z,6.40
2023-11-29T07:44:16.481Z,6.00
2023-11-29T07:46:43.637Z,6.47
2023-11-29T07:49:14.221Z,6.13
2023-11-29T07:51:41.560Z,5.90
2023-11-29T07:54:08.724Z,6.03
2023-11-29T07:56:35.735Z,5.40
2023-11-29T07:59:02.834Z,5.13
2023-11-29T08:04:11.296Z,5.70
2023-11-29T08:09:20.587Z,6.03
2023-11-29T08:11:48.545Z,16.13
2023-11-29T08:16:58.833Z,5.23
2023-11-29T08:19:26.606Z,5.87
2023-11-29T08:21:57.784Z,5.20
2023-11-29T08:27:05.950Z,4.80
2023-11-29T08:32:20.594Z,5.37
2023-11-29T08:34:49.996Z,4.80
2023-11-29T08:37:17.937Z,4.83
2023-11-29T08:39:44.819Z,4.73
2023-11-29T08:42:16.763Z,4.70
2023-11-29T08:44:43.688Z,4.87
2023-11-29T08:47:10.747Z,4.50
2023-11-29T08:49:37.749Z,4.23
2023-11-29T08:52:04.979Z,4.70
2023-11-29T08:54:38.145Z,4.33
2023-11-29T08:57:05.337Z,4.60
2023-11-29T08:59:32.097Z,4.80
2023-11-29T09:01:59.019Z,4.50
2023-11-29T09:04:28.982Z,5.00
2023-11-29T09:06:56.086Z,5.00
2023-11-29T09:12:04.593Z,4.67
2023-11-29T09:14:31.718Z,4.70
2023-11-29T09:16:58.674Z,4.97
2023-11-29T09:19:25.426Z,4.47
2023-11-29T09:21:52.223Z,4.77
2023-11-29T09:24:19.358Z,4.83
2023-11-29T09:26:46.391Z,4.87
2023-11-29T09:29:13.255Z,4.73
2023-11-29T09:31:42.760Z,4.93
2023-11-29T09:39:33.297Z,5.07
2023-11-29T09:42:04.023Z,4.83
2023-11-29T09:44:31.857Z,4.87
2023-11-29T09:47:03.688Z,4.80
2023-11-29T09:49:31.389Z,5.10
2023-11-29T09:51:58.442Z,4.80
2023-11-29T09:54:26.178Z,4.47
2023-11-29T09:56:53.067Z,3.90
2023-11-29T09:59:23.191Z,4.00
2023-11-29T10:01:51.298Z,4.00
2023-11-29T10:04:19.378Z,4.10
2023-11-29T10:06:47.415Z,3.87
2023-11-29T10:09:14.495Z,4.45
2023-11-29T10:11:43.001Z,3.90
2023-11-29T10:14:11.519Z,4.33
2023-11-29T10:16:38.441Z,4.22
2023-11-29T10:19:11.278Z,4.30
2023-11-29T10:21:43.221Z,4.27
2023-11-29T10:24:11.102Z,4.40
2023-11-29T10:26:38.171Z,3.97
2023-11-29T10:29:07.295Z,4.47
2023-11-29T10:31:36.600Z,4.75
2023-11-29T10:34:05.306Z,4.70
2023-11-29T10:36:32.690Z,4.60
2023-11-29T10:39:10.494Z,4.50
2023-11-29T10:41:57.850Z,4.07
2023-11-29T10:44:31.641Z,4.37
2023-11-29T10:47:18.057Z,4.03
2023-11-29T10:50:04.501Z,4.50
2023-11-29T10:52:31.454Z,3.57
2023-11-29T10:54:58.561Z,3.90
2023-11-29T10:57:43.796Z,4.53
2023-11-29T11:00:17.165Z,3.85
2023-11-29T11:02:46.264Z,4.27
2023-11-29T11:05:16.420Z,3.95
2023-11-29T11:07:45.176Z,4.10
2023-11-29T11:10:13.834Z,4.75
2023-11-29T11:12:42.667Z,4.10
2023-11-29T11:15:16.418Z,4.47
2023-11-29T11:18:06.503Z,4.30
2023-11-29T11:20:43.584Z,4.50
2023-11-29T11:23:24.129Z,4.35
2023-11-29T11:25:58.239Z,4.25
2023-11-29T11:28:38.768Z,4.00
2023-11-29T11:31:10.534Z,3.63
2023-11-29T11:33:52.674Z,3.50
2023-11-29T11:36:21.390Z,3.55
2023-11-29T11:38:49.000Z,3.38
2023-11-29T11:41:15.897Z,3.70
2023-11-29T11:43:43.450Z,3.78
2023-11-29T11:46:11.278Z,3.00
2023-11-29T11:48:38.511Z,2.83
2023-11-29T11:51:06.789Z,2.95
2023-11-29T11:53:43.252Z,3.13
2023-11-29T11:56:19.953Z,2.90
2023-11-29T11:58:47.567Z,4.10
2023-11-29T12:01:15.237Z,2.50
2023-11-29T12:03:42.042Z,2.58
2023-11-29T12:06:09.887Z,2.53
2023-11-29T12:08:38.433Z,2.58
2023-11-29T12:11:08.341Z,2.78
2023-11-29T12:13:35.669Z,2.60
2023-11-29T12:16:15.344Z,2.75
2023-11-29T12:18:42.280Z,2.47
2023-11-29T13:54:27.853Z,4.25
2023-11-29T13:56:54.696Z,5.13
2023-11-29T13:59:21.451Z,4.38
2023-11-29T14:01:49.042Z,4.00
2023-11-29T14:11:42.882Z,4.85
2023-11-29T14:22:47.105Z,7.18
2023-11-29T15:12:43.906Z,7.65
2023-11-29T15:18:00.302Z,7.35
2023-11-29T16:02:27.043Z,7.88
2023-11-29T16:04:54.020Z,8.10
2023-11-29T16:07:20.769Z,7.97
2023-11-29T16:38:46.877Z,8.05
2023-11-29T16:50:25.097Z,9.20
2023-11-29T17:09:38.661Z,7.37
2023-11-29T17:12:05.953Z,6.18
2023-11-29T17:14:35.450Z,8.63
2023-11-29T17:17:34.416Z,8.60
2023-11-29T17:20:01.660Z,7.95
2023-11-29T17:22:28.773Z,9.20
2023-11-29T17:24:55.855Z,8.73
2023-11-29T17:27:23.635Z,11.70
2023-11-29T17:30:06.585Z,13.13
2023-11-29T17:35:15.128Z,8.13
2023-11-29T17:37:44.430Z,8.02
2023-11-29T17:40:12.464Z,6.35
2023-11-29T17:45:45.083Z,5.13
2023-11-29T17:48:14.185Z,5.07
2023-11-29T17:58:56.889Z,4.43
2023-11-29T18:16:35.576Z,4.40
2023-11-29T19:00:46.717Z,5.68
2023-11-29T19:03:14.773Z,7.00
2023-11-29T19:05:41.743Z,3.97
2023-11-29T19:08:08.481Z,4.97
2023-11-29T19:10:35.136Z,4.80
2023-11-29T19:29:27.830Z,4.45
2023-11-29T19:31:54.531Z,5.00
2023-11-29T19:34:23.002Z,4.85
2023-11-29T19:54:30.834Z,4.70
2023-11-29T20:02:31.180Z,6.38
2023-11-29T20:19:17.559Z,5.88
2023-11-29T20:21:44.697Z,39.97
2023-11-29T20:24:11.743Z,6.00
2023-11-29T20:26:38.656Z,5.32
2023-11-29T20:29:05.527Z,6.07
2023-11-29T20:31:32.443Z,5.80
2023-11-29T20:33:59.947Z,5.63
2023-11-29T20:36:26.891Z,5.70
2023-11-29T20:38:54.571Z,6.20
2023-11-29T20:41:22.507Z,5.00
2023-11-29T20:43:49.431Z,5.25
2023-11-29T20:46:16.248Z,5.53
2023-11-29T20:48:43.107Z,5.85
2023-11-29T20:51:09.979Z,5.80
2023-11-29T20:53:36.922Z,5.55
2023-11-29T20:56:04.012Z,5.28
2023-11-29T20:58:33.294Z,5.70
2023-11-29T21:01:00.342Z,5.22
2023-11-29T21:03:27.373Z,6.65
2023-11-29T21:05:54.512Z,5.45
2023-11-29T21:08:21.883Z,5.10
2023-11-29T21:10:48.780Z,4.63
2023-11-29T21:13:20.768Z,5.13
2023-11-29T21:15:48.108Z,5.13
2023-11-29T21:18:15.210Z,5.10
2023-11-29T21:20:44.549Z,5.60
2023-11-29T21:23:11.798Z,5.00
2023-11-29T21:25:38.588Z,5.55
2023-11-29T21:28:05.497Z,5.40
2023-11-29T21:30:32.390Z,5.93
2023-11-29T21:32:59.526Z,6.00
2023-11-29T21:35:26.945Z,5.35
2023-11-29T21:37:53.804Z,5.53
2023-11-29T21:40:20.737Z,5.90
2023-11-29T21:42:47.805Z,5.63
2023-11-29T21:45:14.638Z,5.68
2023-11-29T21:47:41.750Z,6.43
2023-11-29T21:50:09.779Z,6.50
2023-11-29T21:52:37.290Z,6.05
2023-11-29T21:55:04.916Z,7.22
2023-11-29T21:57:33.560Z,6.45
2023-11-29T22:00:00.566Z,7.00
2023-11-29T22:02:27.605Z,7.00
2023-11-29T22:04:54.668Z,7.15
2023-11-29T22:07:21.926Z,7.10
2023-11-29T22:09:48.771Z,7.38
2023-11-29T22:12:15.692Z,8.18
2023-11-29T22:14:44.088Z,8.65
2023-11-29T22:17:11.984Z,7.72
2023-11-29T22:19:38.775Z,6.63
2023-11-29T22:22:05.632Z,7.20
2023-11-29T22:24:32.790Z,6.97
2023-11-29T22:27:00.397Z,7.35
2023-11-29T22:29:27.941Z,7.32
2023-11-29T22:31:55.289Z,6.93
2023-11-29T22:34:22.748Z,70.35
2023-11-29T22:36:50.539Z,27.52
2023-11-29T22:39:17.946Z,68.95
2023-11-29T22:41:45.014Z,37.75
2023-11-29T22:44:12.590Z,12.52
2023-11-29T22:46:41.084Z,6.95
2023-11-29T22:49:08.709Z,6.63
2023-11-29T22:51:37.313Z,7.47
2023-11-29T22:54:05.307Z,7.55
2023-11-29T22:56:37.869Z,7.80
2023-11-29T22:59:06.338Z,8.38
2023-11-29T23:01:34.107Z,8.75
2023-11-29T23:04:03.350Z,9.30
2023-11-29T23:06:30.863Z,9.27
2023-11-29T23:08:57.791Z,9.18
2023-11-29T23:11:24.877Z,8.55
2023-11-29T23:13:53.044Z,7.88
2023-11-29T23:16:20.639Z,8.20
2023-11-29T23:18:48.805Z,239.52
2023-11-29T23:21:16.204Z,330.10
2023-11-29T23:23:45.462Z,340.38
2023-11-29T23:26:13.713Z,431.20
2023-11-29T23:28:40.655Z,46.05
2023-11-29T23:31:08.004Z,10.82
2023-11-29T23:33:35.243Z,9.07
2023-11-29T23:36:02.537Z,25.48
2023-11-29T23:38:29.459Z,13.63
2023-11-29T23:40:56.309Z,29.85
2023-11-29T23:43:23.154Z,36.13
2023-11-29T23:45:49.957Z,283.63
2023-11-29T23:48:16.908Z,111.65
2023-11-29T23:50:43.944Z,39.95
2023-11-29T23:53:10.838Z,25.50
2023-11-29T23:55:37.667Z,9.90
2023-11-29T23:58:04.502Z,8.90
